Time;durP1;ratioP1;P1;durP2;ratioP2;P2;SDS_P1;SDS_P2;PMS_P1;PMS_P2;Temp;Humidity;BMP_temperature;BMP_pressure;BME280_temperature;BME280_humidity;BME280_pressure;Samples;Min_cycle;Max_cycle;Signal;HPM_P1;HPM_P2
2023/09/14 00:00:19;;;;;;;;;26.33;22.33;;;;;;;;5098404;27;45906;-77
2023/09/14 00:02:45;;;;;;;;;27.67;23.00;;;;;;;;5103015;27;45978;-77
2023/09/14 00:05:10;;;;;;;;;29.00;25.33;;;;;;;;5104118;27;45712;-77
2023/09/14 00:07:35;;;;;;;;;31.67;26.33;;;;;;;;5102496;27;45562;-77
2023/09/14 00:10:00;;;;;;;;;25.67;23.33;;;;;;;;5101838;27;45775;-75
2023/09/14 00:12:26;;;;;;;;;29.67;27.00;;;;;;;;5099953;27;45602;-76
2023/09/14 00:14:51;;;;;;;;;24.67;23.33;;;;;;;;5098433;27;45529;-76
2023/09/14 00:17:16;;;;;;;;;25.67;21.67;;;;;;;;5077095;27;45352;-76
2023/09/14 00:19:42;;;;;;;;;32.67;27.67;;;;;;;;5084354;27;45395;-76
2023/09/14 00:22:07;;;;;;;;;32.67;27.00;;;;;;;;5090311;27;45624;-76
2023/09/14 00:24:32;;;;;;;;;28.00;27.67;;;;;;;;5082156;27;45319;-76
2023/09/14 00:26:57;;;;;;;;;26.00;23.33;;;;;;;;5091908;27;45366;-76
2023/09/14 00:29:23;;;;;;;;;24.33;22.33;;;;;;;;5099257;27;45868;-76
2023/09/14 00:31:48;;;;;;;;;22.67;21.33;;;;;;;;5086301;27;45610;-75
2023/09/14 00:34:13;;;;;;;;;23.67;21.00;;;;;;;;5092178;27;45506;-74
2023/09/14 00:36:38;;;;;;;;;20.00;17.00;;;;;;;;5096537;27;45754;-76
2023/09/14 00:39:04;;;;;;;;;23.67;21.67;;;;;;;;5103564;27;45510;-76
2023/09/14 00:41:29;;;;;;;;;26.33;23.33;;;;;;;;5102392;27;45816;-75
2023/09/14 00:43:54;;;;;;;;;22.67;20.33;;;;;;;;5101615;27;45553;-76
2023/09/14 00:46:20;;;;;;;;;24.67;19.67;;;;;;;;5102091;27;45608;-75
2023/09/14 00:48:45;;;;;;;;;25.33;23.00;;;;;;;;5102696;27;45531;-75
2023/09/14 00:51:11;;;;;;;;;20.00;18.67;;;;;;;;5084332;27;47304;-74
2023/09/14 00:53:36;;;;;;;;;26.33;23.33;;;;;;;;5078930;28;45853;-76
2023/09/14 00:56:01;;;;;;;;;24.33;20.33;;;;;;;;5079827;27;45540;-75
2023/09/14 00:58:27;;;;;;;;;21.67;20.00;;;;;;;;5100108;27;45364;-75
2023/09/14 01:00:52;;;;;;;;;25.67;23.33;;;;;;;;5079222;28;47074;-76
2023/09/14 01:03:17;;;;;;;;;19.33;16.67;;;;;;;;5083381;27;45450;-76
2023/09/14 01:05:44;;;;;;;;;22.00;18.67;;;;;;;;5101493;27;45793;-75
2023/09/14 01:08:09;;;;;;;;;24.67;22.33;;;;;;;;5079395;28;46401;-76
2023/09/14 01:10:35;;;;;;;;;28.33;23.00;;;;;;;;5098206;27;45965;-76
2023/09/14 01:13:01;;;;;;;;;23.33;18.33;;;;;;;;5103049;27;44748;-77
2023/09/14 01:15:29;;;;;;;;;24.00;22.67;;;;;;;;5099844;27;45377;-75
2023/09/14 01:18:19;;;;;;;;;24.33;22.67;;;;;;;;5097405;27;45789;-78
2023/09/14 01:20:44;;;;;;;;;20.33;18.00;;;;;;;;5098348;27;45407;-79
2023/09/14 01:23:19;;;;;;;;;19.00;18.67;;;;;;;;5103939;27;44703;-76
2023/09/14 01:25:45;;;;;;;;;29.33;26.33;;;;;;;;5073889;27;45540;-77
2023/09/14 01:28:11;;;;;;;;;19.67;15.67;;;;;;;;5093174;27;45636;-76
2023/09/14 01:30:37;;;;;;;;;23.33;21.33;;;;;;;;5079543;27;47244;-76
2023/09/14 01:33:06;;;;;;;;;22.00;20.00;;;;;;;;5083800;27;45417;-76
2023/09/14 01:35:33;;;;;;;;;23.33;23.33;;;;;;;;5082305;27;45544;-76
2023/09/14 01:37:59;;;;;;;;;19.00;17.67;;;;;;;;5100820;27;45431;-75
2023/09/14 01:40:25;;;;;;;;;23.33;21.00;;;;;;;;5090670;27;45532;-76
2023/09/14 01:42:51;;;;;;;;;21.00;19.67;;;;;;;;5087853;27;45482;-76
2023/09/14 01:45:16;;;;;;;;;20.67;19.33;;;;;;;;5102301;27;45337;-77
2023/09/14 01:47:42;;;;;;;;;16.67;16.67;;;;;;;;5092999;27;45392;-76
2023/09/14 01:50:07;;;;;;;;;24.67;18.67;;;;;;;;5099340;27;45755;-78
2023/09/14 01:52:32;;;;;;;;;22.33;17.67;;;;;;;;5100515;27;45796;-77
2023/09/14 01:54:57;;;;;;;;;16.67;16.67;;;;;;;;5099670;27;45918;-78
2023/09/14 01:57:23;;;;;;;;;23.33;16.67;;;;;;;;5099740;27;45800;-77
2023/09/14 01:59:49;;;;;;;;;22.00;18.33;;;;;;;;5099206;27;46989;-78
2023/09/14 02:02:14;;;;;;;;;18.33;18.33;;;;;;;;5080419;27;45762;-77
2023/09/14 02:04:41;;;;;;;;;20.67;16.67;;;;;;;;5081612;27;45414;-75
2023/09/14 02:07:07;;;;;;;;;24.00;18.67;;;;;;;;5077199;27;46505;-77
2023/09/14 02:09:32;;;;;;;;;16.33;13.00;;;;;;;;5101411;27;46547;-76
2023/09/14 02:11:57;;;;;;;;;22.00;18.00;;;;;;;;5097272;27;45532;-77
2023/09/14 02:14:23;;;;;;;;;20.67;19.67;;;;;;;;5096936;27;45905;-77
2023/09/14 02:16:48;;;;;;;;;17.33;16.00;;;;;;;;5090109;27;45451;-74
2023/09/14 02:19:14;;;;;;;;;24.33;20.33;;;;;;;;5080089;27;47175;-78
2023/09/14 02:21:39;;;;;;;;;20.33;18.33;;;;;;;;5100967;27;45463;-76
2023/09/14 02:24:04;;;;;;;;;22.00;19.33;;;;;;;;5101327;27;45436;-74
2023/09/14 02:26:30;;;;;;;;;19.33;18.67;;;;;;;;5101746;27;45713;-76
2023/09/14 02:28:55;;;;;;;;;19.33;19.33;;;;;;;;5091971;27;45691;-76
2023/09/14 02:31:20;;;;;;;;;20.67;17.33;;;;;;;;5101168;27;45490;-75
2023/09/14 02:33:45;;;;;;;;;19.67;16.33;;;;;;;;5101340;27;45397;-74
2023/09/14 02:36:11;;;;;;;;;17.33;17.33;;;;;;;;5101243;27;45345;-75
2023/09/14 02:38:36;;;;;;;;;20.67;17.33;;;;;;;;5099244;27;45064;-75
2023/09/14 02:41:01;;;;;;;;;23.00;19.67;;;;;;;;5093459;27;45358;-75
2023/09/14 02:43:26;;;;;;;;;21.67;18.67;;;;;;;;5083481;27;45452;-78
2023/09/14 02:45:52;;;;;;;;;20.67;18.00;;;;;;;;5083278;27;45372;-77
2023/09/14 02:48:17;;;;;;;;;18.00;16.00;;;;;;;;5094676;27;45380;-76
2023/09/14 02:50:43;;;;;;;;;21.67;18.00;;;;;;;;5100176;27;44834;-78
2023/09/14 02:53:08;;;;;;;;;18.67;18.67;;;;;;;;5095598;27;45368;-76
2023/09/14 02:55:34;;;;;;;;;17.00;17.00;;;;;;;;5099453;27;45364;-75
2023/09/14 02:57:59;;;;;;;;;18.33;17.33;;;;;;;;5098968;27;46878;-76
2023/09/14 03:00:25;;;;;;;;;26.67;20.33;;;;;;;;5092279;27;45902;-77
2023/09/14 03:02:51;;;;;;;;;25.33;20.00;;;;;;;;5097882;27;45327;-76
2023/09/14 03:05:17;;;;;;;;;22.33;20.00;;;;;;;;5101075;27;45646;-76
2023/09/14 03:07:43;;;;;;;;;18.67;18.33;;;;;;;;5073410;27;48720;-74
2023/09/14 03:10:09;;;;;;;;;17.67;15.00;;;;;;;;5100709;27;45819;-76
2023/09/14 03:12:34;;;;;;;;;16.67;16.33;;;;;;;;5100984;27;45488;-76
2023/09/14 03:14:59;;;;;;;;;18.00;18.00;;;;;;;;5101115;27;45909;-77
2023/09/14 03:17:25;;;;;;;;;21.33;17.67;;;;;;;;5100937;27;45809;-75
2023/09/14 03:19:53;;;;;;;;;20.33;18.33;;;;;;;;5080095;27;44854;-76
2023/09/14 03:22:18;;;;;;;;;19.67;18.00;;;;;;;;5096342;27;45693;-76
2023/09/14 03:24:43;;;;;;;;;19.33;17.67;;;;;;;;5081848;27;45446;-76
2023/09/14 03:27:08;;;;;;;;;21.00;17.00;;;;;;;;5094274;27;46274;-77
2023/09/14 03:29:33;;;;;;;;;15.67;15.33;;;;;;;;5089036;27;45898;-77
2023/09/14 03:31:59;;;;;;;;;20.33;17.67;;;;;;;;5082558;27;45517;-80
2023/09/14 03:34:25;;;;;;;;;19.33;18.33;;;;;;;;5064496;27;47098;-80
2023/09/14 03:36:50;;;;;;;;;17.00;16.00;;;;;;;;5086793;27;45644;-77
2023/09/14 03:39:15;;;;;;;;;21.00;19.00;;;;;;;;5088712;27;45487;-78
2023/09/14 03:41:40;;;;;;;;;23.00;21.00;;;;;;;;5087695;27;45459;-77
2023/09/14 03:44:05;;;;;;;;;22.67;21.00;;;;;;;;5086664;27;45417;-77
2023/09/14 03:46:31;;;;;;;;;36.00;32.67;;;;;;;;5082020;27;48227;-77
2023/09/14 03:48:56;;;;;;;;;22.00;18.67;;;;;;;;5090469;27;45408;-77
2023/09/14 03:51:21;;;;;;;;;15.67;14.33;;;;;;;;5076020;27;45331;-77
2023/09/14 03:53:47;;;;;;;;;19.33;18.67;;;;;;;;5072021;27;46360;-77
2023/09/14 03:56:15;;;;;;;;;19.33;18.33;;;;;;;;5085501;27;45449;-79
2023/09/14 03:58:42;;;;;;;;;22.33;19.67;;;;;;;;5068816;27;45473;-77
2023/09/14 04:01:07;;;;;;;;;29.50;21.50;;;;;;;;5088098;27;45848;-79
2023/09/14 04:03:33;;;;;;;;;16.67;16.67;;;;;;;;5089002;27;45426;-78
2023/09/14 04:05:58;;;;;;;;;20.67;17.67;;;;;;;;5088466;27;45379;-78
2023/09/14 04:08:24;;;;;;;;;17.33;15.67;;;;;;;;5069416;27;45482;-77
2023/09/14 04:10:51;;;;;;;;;20.00;19.33;;;;;;;;5079649;27;45925;-77
2023/09/14 04:13:29;;;;;;;;;21.00;18.67;;;;;;;;5084820;27;45789;-76
2023/09/14 04:15:54;;;;;;;;;24.67;20.67;;;;;;;;5089641;27;45514;-78
2023/09/14 04:18:20;;;;;;;;;33.67;27.67;;;;;;;;5090386;27;45646;-76
2023/09/14 04:20:57;;;;;;;;;24.33;20.33;;;;;;;;5090526;27;46070;-77
2023/09/14 04:23:22;;;;;;;;;25.33;23.33;;;;;;;;5092114;27;45544;-77
2023/09/14 04:25:48;;;;;;;;;24.00;21.67;;;;;;;;5091010;27;45365;-74
2023/09/14 04:28:14;;;;;;;;;17.67;14.00;;;;;;;;5091501;27;45530;-79
2023/09/14 04:30:43;;;;;;;;;26.33;25.33;;;;;;;;5094030;27;45798;-77
2023/09/14 04:33:09;;;;;;;;;21.33;20.33;;;;;;;;5093127;27;45902;-77
2023/09/14 04:35:34;;;;;;;;;24.33;22.67;;;;;;;;5093066;27;45502;-80
2023/09/14 04:37:59;;;;;;;;;22.00;18.67;;;;;;;;5093998;27;45709;-77
2023/09/14 04:40:24;;;;;;;;;21.00;19.67;;;;;;;;5078215;27;45520;-77
2023/09/14 04:42:50;;;;;;;;;27.33;22.33;;;;;;;;5092127;27;45697;-75
2023/09/14 04:45:15;;;;;;;;;80.25;62.75;;;;;;;;5092451;27;45957;-77
2023/09/14 04:47:40;;;;;;;;;21.00;16.00;;;;;;;;5101615;27;45940;-76
2023/09/14 04:50:06;;;;;;;;;17.67;12.00;;;;;;;;5077209;27;45509;-79
2023/09/14 04:52:31;;;;;;;;;21.00;18.50;;;;;;;;5082399;27;46431;-81
2023/09/14 04:54:57;;;;;;;;;32.00;25.33;;;;;;;;5097541;27;45687;-78
2023/09/14 04:57:24;;;;;;;;;23.00;18.67;;;;;;;;5100911;27;45456;-79
2023/09/14 04:59:50;;;;;;;;;23.33;22.33;;;;;;;;5102555;27;45676;-78
2023/09/14 05:02:15;;;;;;;;;21.00;19.33;;;;;;;;5088170;27;45662;-79
2023/09/14 05:04:40;;;;;;;;;21.33;19.67;;;;;;;;5093897;27;45488;-82
2023/09/14 05:07:05;;;;;;;;;19.00;18.00;;;;;;;;5099267;27;45780;-81
2023/09/14 05:09:31;;;;;;;;;25.67;20.67;;;;;;;;5085681;28;45393;-79
2023/09/14 05:11:56;;;;;;;;;22.33;21.00;;;;;;;;5102597;27;44939;-79
2023/09/14 05:14:21;;;;;;;;;18.67;18.00;;;;;;;;5102467;27;45550;-81
2023/09/14 05:16:47;;;;;;;;;20.33;19.33;;;;;;;;5102607;27;45444;-79
2023/09/14 05:19:12;;;;;;;;;23.00;19.33;;;;;;;;5103606;27;45812;-79
2023/09/14 05:21:38;;;;;;;;;24.00;23.00;;;;;;;;5093829;27;45452;-78
2023/09/14 05:24:03;;;;;;;;;24.67;23.67;;;;;;;;5087683;27;46254;-79
2023/09/14 05:26:28;;;;;;;;;24.00;21.00;;;;;;;;5105563;27;45393;-79
2023/09/14 05:28:57;;;;;;;;;26.67;22.00;;;;;;;;5107094;27;44894;-78
2023/09/14 05:31:22;;;;;;;;;22.67;22.67;;;;;;;;5102761;27;45790;-79
2023/09/14 05:33:47;;;;;;;;;29.00;24.33;;;;;;;;5094414;27;45339;-78
2023/09/14 05:36:12;;;;;;;;;26.33;22.67;;;;;;;;5101842;27;45777;-80
2023/09/14 05:38:38;;;;;;;;;26.67;23.00;;;;;;;;5106657;27;46045;-80
2023/09/14 05:41:03;;;;;;;;;17.67;17.67;;;;;;;;5107459;27;45224;-78
2023/09/14 05:43:29;;;;;;;;;18.00;18.00;;;;;;;;5107585;27;45277;-80
2023/09/14 05:45:54;;;;;;;;;19.67;17.67;;;;;;;;5105191;27;45620;-82
2023/09/14 05:48:20;;;;;;;;;20.33;18.00;;;;;;;;5080896;27;45583;-82
2023/09/14 05:50:45;;;;;;;;;23.67;22.67;;;;;;;;5087471;27;46344;-82
2023/09/14 05:53:10;;;;;;;;;21.67;19.67;;;;;;;;5106191;27;45534;-81
2023/09/14 05:55:35;;;;;;;;;20.33;19.33;;;;;;;;5104141;27;45370;-79
2023/09/14 05:58:13;;;;;;;;;21.33;20.00;;;;;;;;5110663;27;45405;-84
2023/09/14 06:00:39;;;;;;;;;21.00;19.00;;;;;;;;5095577;27;45597;-84
2023/09/14 06:03:04;;;;;;;;;25.67;22.33;;;;;;;;5087954;27;46998;-80
2023/09/14 06:05:35;;;;;;;;;24.67;22.00;;;;;;;;5107928;27;45356;-84
2023/09/14 06:08:01;;;;;;;;;25.33;20.67;;;;;;;;5092672;27;44838;-83
2023/09/14 06:10:29;;;;;;;;;21.00;19.00;;;;;;;;5084476;28;45819;-84
2023/09/14 06:12:55;;;;;;;;;15.67;14.67;;;;;;;;5104987;27;45532;-84
2023/09/14 06:15:20;;;;;;;;;21.67;19.33;;;;;;;;5091546;27;45438;-81
2023/09/14 06:17:59;;;;;;;;;18.67;18.33;;;;;;;;5091399;27;44805;-83
2023/09/14 06:20:27;;;;;;;;;26.33;20.67;;;;;;;;5102868;27;45483;-83
2023/09/14 06:22:53;;;;;;;;;20.00;17.67;;;;;;;;5097584;27;45277;-81
2023/09/14 06:25:20;;;;;;;;;22.33;18.00;;;;;;;;5099806;27;45293;-78
2023/09/14 06:27:45;;;;;;;;;15.67;14.33;;;;;;;;5076173;27;45363;-78
2023/09/14 06:30:10;;;;;;;;;17.33;16.33;;;;;;;;5086416;27;47099;-80
2023/09/14 06:32:36;;;;;;;;;20.00;16.33;;;;;;;;5087426;27;47100;-80
2023/09/14 06:35:01;;;;;;;;;22.00;18.00;;;;;;;;5107150;27;45031;-81
2023/09/14 06:37:26;;;;;;;;;16.33;14.33;;;;;;;;5084604;27;44855;-81
2023/09/14 06:39:53;;;;;;;;;19.00;18.33;;;;;;;;5104485;27;45892;-83
2023/09/14 06:42:18;;;;;;;;;15.67;12.33;;;;;;;;5106656;27;45498;-80
2023/09/14 06:44:44;;;;;;;;;22.33;20.33;;;;;;;;5102233;27;44743;-80
2023/09/14 06:47:09;;;;;;;;;20.00;19.33;;;;;;;;5089233;27;45435;-80
2023/09/14 06:49:34;;;;;;;;;18.67;15.33;;;;;;;;5084122;27;46067;-79
2023/09/14 06:52:00;;;;;;;;;20.75;15.75;;;;;;;;5083111;27;46997;-79
2023/09/14 06:54:25;;;;;;;;;15.67;15.67;;;;;;;;5084966;27;45694;-80
2023/09/14 06:56:50;;;;;;;;;17.00;17.00;;;;;;;;5105079;27;45415;-81
2023/09/14 06:59:17;;;;;;;;;16.67;16.00;;;;;;;;5094270;27;45575;-81
2023/09/14 07:01:42;;;;;;;;;20.33;13.33;;;;;;;;5095881;27;45504;-80
2023/09/14 07:04:07;;;;;;;;;24.67;20.33;;;;;;;;5097274;27;45370;-79
2023/09/14 07:06:33;;;;;;;;;16.00;13.25;;;;;;;;5077488;27;45797;-80
2023/09/14 07:08:59;;;;;;;;;16.67;15.67;;;;;;;;5088684;27;45524;-79
2023/09/14 07:11:25;;;;;;;;;21.25;18.00;;;;;;;;5102325;27;45480;-79
2023/09/14 07:13:50;;;;;;;;;18.50;17.00;;;;;;;;5080386;27;45464;-80
2023/09/14 07:16:16;;;;;;;;;19.00;19.00;;;;;;;;5109975;27;44768;-80
2023/09/14 07:18:41;;;;;;;;;21.00;20.00;;;;;;;;5091922;27;45897;-79
2023/09/14 07:21:06;;;;;;;;;21.33;20.67;;;;;;;;5107709;27;45361;-80
2023/09/14 07:23:31;;;;;;;;;24.33;21.67;;;;;;;;5091953;27;46366;-81
2023/09/14 07:25:57;;;;;;;;;19.33;19.00;;;;;;;;5081123;28;45276;-79
2023/09/14 07:28:22;;;;;;;;;19.75;19.75;;;;;;;;5091383;27;45516;-79
2023/09/14 07:30:48;;;;;;;;;22.67;19.33;;;;;;;;5101683;27;45207;-79
2023/09/14 07:33:14;;;;;;;;;22.33;20.00;;;;;;;;5096063;27;44730;-81
2023/09/14 07:35:39;;;;;;;;;22.33;18.00;;;;;;;;5110550;27;45620;-81
2023/09/14 07:38:05;;;;;;;;;19.33;18.00;;;;;;;;5108491;27;44953;-81
2023/09/14 07:40:30;;;;;;;;;17.67;15.67;;;;;;;;5109127;27;45803;-80
2023/09/14 07:42:56;;;;;;;;;23.67;20.67;;;;;;;;5084744;27;45699;-78
2023/09/14 07:45:21;;;;;;;;;23.33;21.33;;;;;;;;5090699;27;45399;-79
2023/09/14 07:47:46;;;;;;;;;21.00;18.67;;;;;;;;5094669;27;45512;-80
2023/09/14 07:50:12;;;;;;;;;24.67;23.67;;;;;;;;5101865;27;45190;-80
2023/09/14 07:52:37;;;;;;;;;26.00;26.00;;;;;;;;5103574;27;44744;-79
2023/09/14 07:55:08;;;;;;;;;20.33;20.33;;;;;;;;5090352;27;44822;-80
2023/09/14 07:57:33;;;;;;;;;23.00;21.67;;;;;;;;5107136;27;45547;-80
2023/09/14 07:59:58;;;;;;;;;24.67;22.67;;;;;;;;5109146;27;45174;-80
2023/09/14 08:02:25;;;;;;;;;26.00;25.67;;;;;;;;5104014;27;47419;-79
2023/09/14 08:04:51;;;;;;;;;27.67;24.33;;;;;;;;5110589;27;45788;-79
2023/09/14 08:07:16;;;;;;;;;27.33;24.33;;;;;;;;5090270;27;45823;-80
2023/09/14 08:09:43;;;;;;;;;28.33;26.00;;;;;;;;5107597;27;45460;-80
2023/09/14 08:12:09;;;;;;;;;35.67;29.67;;;;;;;;5098621;27;44749;-80
2023/09/14 08:14:34;;;;;;;;;29.67;26.67;;;;;;;;5082507;27;45437;-78
2023/09/14 08:16:59;;;;;;;;;33.00;29.67;;;;;;;;5100369;27;44828;-80
2023/09/14 08:19:25;;;;;;;;;34.00;31.00;;;;;;;;5107661;27;45207;-80
2023/09/14 08:21:52;;;;;;;;;32.33;31.33;;;;;;;;5109305;27;45326;-79
2023/09/14 08:24:17;;;;;;;;;29.00;26.67;;;;;;;;5093079;27;45414;-79
2023/09/14 08:26:42;;;;;;;;;30.67;24.00;;;;;;;;5110141;27;45626;-78
2023/09/14 08:29:07;;;;;;;;;28.67;28.67;;;;;;;;5112197;27;46171;-81
2023/09/14 08:31:33;;;;;;;;;28.67;26.00;;;;;;;;5109911;27;45228;-80
2023/09/14 08:33:58;;;;;;;;;33.67;29.67;;;;;;;;5114121;27;45433;-82
2023/09/14 08:36:23;;;;;;;;;35.00;30.33;;;;;;;;5109282;27;44793;-82
2023/09/14 08:38:49;;;;;;;;;31.67;30.33;;;;;;;;5103066;27;45693;-82
2023/09/14 08:41:35;;;;;;;;;25.00;20.67;;;;;;;;5090759;27;44785;-81
2023/09/14 08:44:01;;;;;;;;;33.67;29.67;;;;;;;;5096105;27;45389;-80
2023/09/14 08:46:29;;;;;;;;;28.00;26.00;;;;;;;;5095747;27;45887;-84
2023/09/14 08:48:55;;;;;;;;;26.33;24.00;;;;;;;;5112597;27;45420;-82
2023/09/14 08:51:25;;;;;;;;;31.00;31.00;;;;;;;;5092545;27;44812;-82
2023/09/14 08:53:52;;;;;;;;;36.33;30.33;;;;;;;;5113674;27;44773;-81
2023/09/14 08:56:19;;;;;;;;;34.00;29.33;;;;;;;;5087209;27;45434;-80
2023/09/14 08:58:44;;;;;;;;;34.00;32.00;;;;;;;;5083221;27;46837;-82
2023/09/14 09:01:11;;;;;;;;;33.00;29.67;;;;;;;;5115610;27;45111;-83
2023/09/14 09:03:36;;;;;;;;;26.00;23.67;;;;;;;;5096943;27;44749;-80
2023/09/14 09:06:02;;;;;;;;;30.33;30.00;;;;;;;;5112820;27;45519;-82
2023/09/14 09:08:28;;;;;;;;;35.67;31.67;;;;;;;;5114677;27;45620;-81
2023/09/14 09:11:05;;;;;;;;;42.33;34.67;;;;;;;;5092242;27;45455;-82
2023/09/14 09:13:34;;;;;;;;;29.00;27.00;;;;;;;;5092527;27;45436;-81
2023/09/14 09:16:00;;;;;;;;;41.33;32.33;;;;;;;;5113680;27;44885;-79
2023/09/14 09:18:26;;;;;;;;;38.00;32.33;;;;;;;;5077042;28;46855;-83
2023/09/14 09:20:51;;;;;;;;;48.33;34.33;;;;;;;;5089150;27;45230;-82
2023/09/14 09:23:19;;;;;;;;;36.00;29.33;;;;;;;;5094137;27;45446;-82
2023/09/14 09:26:09;;;;;;;;;38.00;33.67;;;;;;;;5086855;28;46157;-82
2023/09/14 09:28:48;;;;;;;;;31.33;30.33;;;;;;;;5098393;27;45177;-83
2023/09/14 09:31:17;;;;;;;;;37.00;29.33;;;;;;;;5108495;27;45644;-81
2023/09/14 09:33:52;;;;;;;;;35.33;31.67;;;;;;;;5078598;28;45155;-82
2023/09/14 09:36:21;;;;;;;;;34.00;30.33;;;;;;;;5112854;27;45435;-81
2023/09/14 09:38:51;;;;;;;;;31.00;28.67;;;;;;;;5094106;27;45422;-83
2023/09/14 09:41:17;;;;;;;;;35.33;32.00;;;;;;;;5105620;27;45419;-82
2023/09/14 09:43:44;;;;;;;;;36.00;31.67;;;;;;;;5111774;27;45559;-82
2023/09/14 09:46:16;;;;;;;;;32.67;32.00;;;;;;;;5108448;27;45722;-82
2023/09/14 09:48:41;;;;;;;;;25.67;24.00;;;;;;;;5092801;27;47517;-82
2023/09/14 09:51:07;;;;;;;;;31.00;28.33;;;;;;;;5092825;27;45434;-81
2023/09/14 09:53:32;;;;;;;;;30.67;28.67;;;;;;;;5096842;27;45437;-84
2023/09/14 09:55:58;;;;;;;;;35.00;27.00;;;;;;;;5095449;27;45454;-81
2023/09/14 09:58:36;;;;;;;;;29.67;24.00;;;;;;;;5099081;27;45608;-82
2023/09/14 10:01:03;;;;;;;;;31.33;27.00;;;;;;;;5099675;27;45245;-80
2023/09/14 10:03:31;;;;;;;;;31.33;25.67;;;;;;;;5101115;27;45550;-81
2023/09/14 10:05:57;;;;;;;;;26.00;25.00;;;;;;;;5097785;27;45452;-81
2023/09/14 10:08:22;;;;;;;;;25.67;25.67;;;;;;;;5107417;27;46791;-79
2023/09/14 10:10:51;;;;;;;;;32.33;30.00;;;;;;;;5103420;27;45450;-82
2023/09/14 10:13:18;;;;;;;;;25.00;23.67;;;;;;;;5104400;27;45488;-82
2023/09/14 10:15:45;;;;;;;;;26.67;25.33;;;;;;;;5091503;27;45518;-80
2023/09/14 10:18:10;;;;;;;;;21.67;21.67;;;;;;;;5101834;27;45483;-83
2023/09/14 10:20:36;;;;;;;;;21.33;20.33;;;;;;;;5099452;27;44865;-84
2023/09/14 10:23:02;;;;;;;;;22.00;21.67;;;;;;;;5077375;27;45396;-84
2023/09/14 10:25:30;;;;;;;;;27.67;27.67;;;;;;;;5069644;27;45451;-80
2023/09/14 10:27:56;;;;;;;;;28.67;26.33;;;;;;;;5091038;27;47218;-89
2023/09/14 10:30:50;;;;;;;;;24.67;22.00;;;;;;;;5118297;27;44740;-87
2023/09/14 10:36:18;;;;;;;;;21.33;19.33;;;;;;;;5090024;27;45681;-68
2023/09/14 10:38:45;;;;;;;;;23.67;21.67;;;;;;;;5091045;27;46761;-67
2023/09/14 10:41:11;;;;;;;;;21.00;21.00;;;;;;;;5089025;27;45460;-67
2023/09/14 10:43:37;;;;;;;;;26.33;21.00;;;;;;;;5071083;27;45280;-69
2023/09/14 10:46:03;;;;;;;;;23.00;22.00;;;;;;;;5087552;27;45679;-68
2023/09/14 10:48:29;;;;;;;;;25.67;22.33;;;;;;;;5094876;27;46115;-70
2023/09/14 10:51:00;;;;;;;;;26.33;21.67;;;;;;;;5091275;27;45629;-68
2023/09/14 10:53:26;;;;;;;;;27.00;19.50;;;;;;;;5089921;27;46546;-69
2023/09/14 10:55:51;;;;;;;;;16.00;16.00;;;;;;;;5091599;27;45789;-66
2023/09/14 10:58:17;;;;;;;;;19.00;16.33;;;;;;;;5093063;27;45733;-68
2023/09/14 11:00:42;;;;;;;;;17.33;16.67;;;;;;;;5093161;27;45415;-68
2023/09/14 11:03:08;;;;;;;;;19.00;16.67;;;;;;;;5093810;27;45487;-69
2023/09/14 11:05:43;;;;;;;;;14.00;14.00;;;;;;;;5071250;27;47115;-67
2023/09/14 11:08:09;;;;;;;;;14.25;14.00;;;;;;;;5091850;27;46916;-67
2023/09/14 11:10:37;;;;;;;;;14.50;12.75;;;;;;;;5080717;27;45759;-68
2023/09/14 11:13:20;;;;;;;;;14.50;11.75;;;;;;;;5089917;27;45717;-67
2023/09/14 11:15:47;;;;;;;;;11.50;10.75;;;;;;;;5088734;27;45748;-69
2023/09/14 11:18:32;;;;;;;;;18.50;13.50;;;;;;;;5093497;27;45481;-69
2023/09/14 11:20:57;;;;;;;;;11.50;9.75;;;;;;;;5092300;27;45698;-68
2023/09/14 11:23:31;;;;;;;;;11.50;10.00;;;;;;;;5091530;27;45392;-68
2023/09/14 11:25:56;;;;;;;;;15.33;15.33;;;;;;;;5092949;27;45720;-68
2023/09/14 11:28:22;;;;;;;;;9.75;9.75;;;;;;;;5099371;27;45491;-68
2023/09/14 11:30:48;;;;;;;;;10.50;9.00;;;;;;;;5079704;27;46438;-68
2023/09/14 11:33:13;;;;;;;;;5.25;5.25;;;;;;;;5093063;27;45408;-69
2023/09/14 11:35:39;;;;;;;;;6.50;5.00;;;;;;;;5098614;27;45846;-69
2023/09/14 11:38:14;;;;;;;;;6.00;6.00;;;;;;;;5099392;27;46880;-69
2023/09/14 11:40:40;;;;;;;;;5.00;5.00;;;;;;;;5081930;27;45784;-68
2023/09/14 11:43:38;;;;;;;;;5.75;4.00;;;;;;;;5094548;27;45333;-67
2023/09/14 11:46:00;;;;;;;;;4.25;4.25;;;;;;;;5091258;27;45378;-67
2023/09/14 11:48:29;;;;;;;;;4.75;4.75;;;;;;;;5095106;27;45375;-67
2023/09/14 11:50:56;;;;;;;;;9.25;6.25;;;;;;;;5076627;27;45315;-68
2023/09/14 11:53:22;;;;;;;;;6.00;5.00;;;;;;;;5094493;27;45368;-68
2023/09/14 11:55:48;;;;;;;;;5.50;3.75;;;;;;;;5102474;27;45301;-69
2023/09/14 11:58:13;;;;;;;;;6.50;6.00;;;;;;;;5094584;27;45708;-66
2023/09/14 12:00:41;;;;;;;;;5.50;5.25;;;;;;;;5104016;27;45521;-67
2023/09/14 12:03:07;;;;;;;;;8.00;7.00;;;;;;;;5094504;27;45372;-66
2023/09/14 12:05:32;;;;;;;;;4.75;4.75;;;;;;;;5081677;27;45721;-67
2023/09/14 12:07:57;;;;;;;;;6.50;6.50;;;;;;;;5093579;27;45314;-67
2023/09/14 12:10:25;;;;;;;;;5.25;5.25;;;;;;;;5094973;27;45545;-67
2023/09/14 12:12:50;;;;;;;;;5.25;4.00;;;;;;;;5093730;27;45411;-67
2023/09/14 12:15:20;;;;;;;;;6.25;5.00;;;;;;;;5080279;27;46122;-68
2023/09/14 12:17:49;;;;;;;;;8.00;5.00;;;;;;;;5079334;27;47402;-69
2023/09/14 12:20:15;;;;;;;;;12.25;10.75;;;;;;;;5100488;27;45623;-65
2023/09/14 12:22:40;;;;;;;;;7.00;7.00;;;;;;;;5095480;27;45821;-67
2023/09/14 12:25:06;;;;;;;;;5.75;4.75;;;;;;;;5095584;27;45653;-67
2023/09/14 12:27:33;;;;;;;;;5.00;5.00;;;;;;;;5095580;27;45312;-68
2023/09/14 12:29:59;;;;;;;;;5.75;4.50;;;;;;;;5094746;27;45522;-67
2023/09/14 12:32:25;;;;;;;;;7.25;5.00;;;;;;;;5094557;27;45765;-66
2023/09/14 12:34:50;;;;;;;;;5.25;5.25;;;;;;;;5077058;27;45362;-67
2023/09/14 12:37:16;;;;;;;;;2.00;1.25;;;;;;;;5079215;27;46782;-68
2023/09/14 12:39:45;;;;;;;;;4.75;4.75;;;;;;;;5065777;27;45693;-69
2023/09/14 12:42:10;;;;;;;;;8.75;5.50;;;;;;;;5079489;27;45880;-69
2023/09/14 12:44:36;;;;;;;;;6.50;6.50;;;;;;;;5074295;27;46036;-67
2023/09/14 12:47:02;;;;;;;;;4.00;4.00;;;;;;;;5074499;27;46639;-67
2023/09/14 12:49:27;;;;;;;;;5.25;4.50;;;;;;;;5074340;27;45979;-67
2023/09/14 12:51:53;;;;;;;;;6.00;5.00;;;;;;;;5087918;27;45458;-67
2023/09/14 12:54:25;;;;;;;;;6.00;6.00;;;;;;;;5082067;27;45581;-67
2023/09/14 12:56:50;;;;;;;;;7.00;5.25;;;;;;;;5080599;27;46159;-67
2023/09/14 12:59:16;;;;;;;;;5.75;5.75;;;;;;;;5081187;27;45305;-66
2023/09/14 13:01:41;;;;;;;;;4.75;4.25;;;;;;;;5074678;27;45270;-66
2023/09/14 13:04:08;;;;;;;;;8.75;6.00;;;;;;;;5076094;27;45617;-67
2023/09/14 13:06:34;;;;;;;;;4.00;4.00;;;;;;;;5089750;27;46245;-67
2023/09/14 13:09:06;;;;;;;;;5.75;4.00;;;;;;;;5078521;27;45822;-67
2023/09/14 13:11:32;;;;;;;;;5.75;5.75;;;;;;;;5085818;27;45321;-69
2023/09/14 13:13:57;;;;;;;;;5.50;5.00;;;;;;;;5093731;27;45851;-67
2023/09/14 13:16:22;;;;;;;;;4.25;4.00;;;;;;;;5059177;28;47042;-66
2023/09/14 13:18:48;;;;;;;;;2.75;2.75;;;;;;;;5073221;27;45357;-68
2023/09/14 13:21:13;;;;;;;;;4.50;4.50;;;;;;;;5077375;27;45208;-69
2023/09/14 13:23:39;;;;;;;;;6.00;6.00;;;;;;;;5089786;27;45562;-66
2023/09/14 13:26:05;;;;;;;;;5.50;5.50;;;;;;;;5072516;28;45480;-68
2023/09/14 13:28:30;;;;;;;;;6.50;6.50;;;;;;;;5082851;27;45479;-67
2023/09/14 13:30:55;;;;;;;;;4.25;4.25;;;;;;;;5088922;27;45409;-67
2023/09/14 13:33:20;;;;;;;;;9.25;7.00;;;;;;;;5082892;27;45339;-68
2023/09/14 13:35:47;;;;;;;;;6.75;6.75;;;;;;;;5098732;27;46380;-66
2023/09/14 13:38:12;;;;;;;;;8.50;5.50;;;;;;;;5099928;27;45627;-68
2023/09/14 13:40:38;;;;;;;;;6.00;6.00;;;;;;;;5081857;27;46132;-66
2023/09/14 13:43:03;;;;;;;;;5.00;5.00;;;;;;;;5097297;27;45449;-67
2023/09/14 13:45:29;;;;;;;;;5.25;4.50;;;;;;;;5093739;27;48566;-68
2023/09/14 13:47:54;;;;;;;;;7.00;6.00;;;;;;;;5082135;27;45396;-67
2023/09/14 13:50:20;;;;;;;;;9.75;5.50;;;;;;;;5087977;27;45876;-67
2023/09/14 13:52:46;;;;;;;;;6.00;6.00;;;;;;;;5086234;27;45847;-68
2023/09/14 13:55:11;;;;;;;;;9.50;7.25;;;;;;;;5102330;27;45348;-68
2023/09/14 13:57:37;;;;;;;;;4.50;4.50;;;;;;;;5097196;27;45342;-68
2023/09/14 14:00:05;;;;;;;;;4.00;4.00;;;;;;;;5097437;27;45627;-68
2023/09/14 14:02:31;;;;;;;;;5.75;5.75;;;;;;;;5108190;27;45345;-68
2023/09/14 14:04:56;;;;;;;;;4.25;4.25;;;;;;;;5088066;27;47521;-66
2023/09/14 14:07:21;;;;;;;;;1.25;1.25;;;;;;;;5097224;27;45360;-68
2023/09/14 14:09:46;;;;;;;;;6.75;5.50;;;;;;;;5079226;27;45454;-67
2023/09/14 14:12:12;;;;;;;;;7.50;6.00;;;;;;;;5109517;27;45538;-67
2023/09/14 14:14:37;;;;;;;;;5.00;5.00;;;;;;;;5096697;27;46215;-67
2023/09/14 14:17:03;;;;;;;;;6.00;5.50;;;;;;;;5096159;27;45693;-67
2023/09/14 14:19:28;;;;;;;;;6.50;5.00;;;;;;;;5096966;27;45428;-66